createdAt,value
2023-02-18T00:01:32.969Z,9.12
2023-02-18T00:04:02.660Z,9.09
2023-02-18T00:06:32.900Z,9.04
2023-02-18T00:09:01.622Z,9.04
2023-02-18T00:11:31.436Z,9.02
2023-02-18T00:14:11.761Z,9.00
2023-02-18T00:16:38.757Z,9.02
2023-02-18T00:19:08.778Z,9.02
2023-02-18T00:21:36.240Z,9.04
2023-02-18T00:24:05.037Z,9.01
2023-02-18T00:26:33.081Z,9.00
2023-02-18T00:28:59.774Z,9.04
2023-02-18T00:31:30.165Z,9.00
2023-02-18T00:33:59.990Z,9.00
2023-02-18T00:36:28.479Z,9.06
2023-02-18T00:38:58.233Z,9.03
2023-02-18T00:41:27.989Z,9.01
2023-02-18T00:43:55.236Z,9.00
2023-02-18T00:46:23.373Z,8.98
2023-02-18T00:49:08.152Z,8.91
2023-02-18T00:51:35.992Z,8.92
2023-02-18T00:54:03.288Z,8.93
2023-02-18T00:56:32.023Z,8.92
2023-02-18T00:58:58.778Z,8.91
2023-02-18T01:01:27.436Z,8.90
2023-02-18T01:03:55.042Z,8.91
2023-02-18T01:06:22.075Z,8.92
2023-02-18T01:08:49.339Z,8.91
2023-02-18T01:11:16.271Z,8.90
2023-02-18T01:13:43.136Z,8.88
2023-02-18T01:16:10.844Z,8.90
2023-02-18T01:18:39.610Z,8.93
2023-02-18T01:21:07.983Z,8.94
2023-02-18T01:23:38.112Z,8.92
2023-02-18T01:26:05.896Z,8.81
2023-02-18T01:28:33.059Z,8.80
2023-02-18T01:31:06.065Z,8.88
2023-02-18T01:33:33.618Z,9.06
2023-02-18T01:36:01.447Z,9.13
2023-02-18T01:38:28.191Z,9.18
2023-02-18T01:40:55.057Z,9.28
2023-02-18T01:43:22.930Z,9.19
2023-02-18T01:46:16.241Z,9.20
2023-02-18T01:48:53.985Z,9.16
2023-02-18T01:51:31.871Z,9.12
2023-02-18T01:54:05.014Z,9.08
2023-02-18T01:57:12.556Z,9.06
2023-02-18T01:59:44.014Z,9.10
2023-02-18T02:02:16.540Z,9.05
2023-02-18T02:04:43.850Z,9.06
2023-02-18T02:07:11.099Z,9.11
2023-02-18T02:09:40.462Z,9.15
2023-02-18T02:12:07.144Z,9.18
2023-02-18T02:15:12.265Z,9.15
2023-02-18T02:17:55.552Z,9.20
2023-02-18T02:20:25.613Z,9.37
2023-02-18T02:23:14.366Z,9.41
2023-02-18T02:25:41.068Z,9.72
2023-02-18T02:28:30.325Z,9.57
2023-02-18T02:31:12.251Z,9.29
2023-02-18T02:34:00.122Z,9.78
2023-02-18T02:36:46.000Z,9.27
2023-02-18T02:39:22.283Z,9.23
2023-02-18T02:41:56.624Z,9.18
2023-02-18T02:44:42.628Z,9.25
2023-02-18T02:47:36.584Z,9.34
2023-02-18T02:50:15.077Z,9.35
2023-02-18T02:52:49.817Z,9.40
2023-02-18T02:55:20.117Z,9.56
2023-02-18T02:57:52.735Z,9.83
2023-02-18T03:00:43.805Z,9.85
2023-02-18T03:03:38.017Z,9.51
2023-02-18T03:06:13.806Z,9.47
2023-02-18T03:08:45.700Z,9.36
2023-02-18T03:11:15.289Z,9.42
2023-02-18T03:13:56.128Z,9.83
2023-02-18T03:16:45.324Z,9.68
2023-02-18T03:19:20.883Z,9.58
2023-02-18T03:21:56.419Z,9.57
2023-02-18T03:24:40.268Z,9.57
2023-02-18T03:27:35.908Z,9.55
2023-02-18T03:30:24.042Z,9.54
2023-02-18T03:32:56.049Z,9.56
2023-02-18T03:35:24.432Z,9.57
2023-02-18T03:38:00.362Z,9.51
2023-02-18T03:40:30.102Z,9.44
2023-02-18T03:42:58.568Z,9.40
2023-02-18T03:45:26.969Z,9.49
2023-02-18T03:47:53.889Z,9.57
2023-02-18T03:50:20.747Z,9.56
2023-02-18T03:52:47.837Z,9.60
2023-02-18T03:55:14.736Z,9.63
2023-02-18T03:57:41.634Z,9.62
2023-02-18T04:00:10.905Z,9.64
2023-02-18T04:02:41.259Z,9.65
2023-02-18T04:05:08.604Z,9.80
2023-02-18T04:07:35.445Z,9.96
2023-02-18T04:10:02.420Z,10.03
2023-02-18T04:12:30.009Z,10.09
2023-02-18T04:14:56.919Z,10.32
2023-02-18T04:17:23.826Z,10.22
2023-02-18T04:19:50.540Z,10.22
2023-02-18T04:22:17.407Z,10.19
2023-02-18T04:24:44.279Z,10.14
2023-02-18T04:27:11.169Z,10.13
2023-02-18T04:29:38.121Z,10.13
2023-02-18T04:32:05.068Z,10.11
2023-02-18T04:34:32.020Z,10.11
2023-02-18T04:36:58.831Z,10.10
2023-02-18T04:39:25.648Z,10.11
2023-02-18T04:41:52.370Z,10.09
2023-02-18T04:44:19.174Z,10.10
2023-02-18T04:46:45.858Z,10.07
2023-02-18T04:49:12.602Z,10.06
2023-02-18T04:51:39.430Z,10.27
2023-02-18T04:54:06.242Z,10.06
2023-02-18T04:56:32.858Z,10.17
2023-02-18T04:58:59.647Z,10.03
2023-02-18T05:01:26.511Z,10.03
2023-02-18T05:03:53.447Z,10.10
2023-02-18T05:06:20.273Z,10.15
2023-02-18T05:08:47.049Z,10.20
2023-02-18T05:11:13.736Z,10.22
2023-02-18T05:13:40.570Z,10.28
2023-02-18T05:16:07.816Z,10.29
2023-02-18T05:18:34.791Z,10.36
2023-02-18T05:21:01.652Z,10.45
2023-02-18T05:23:28.552Z,10.57
2023-02-18T05:25:55.391Z,10.80
2023-02-18T05:28:22.462Z,10.79
2023-02-18T05:30:49.606Z,10.86
2023-02-18T05:33:16.373Z,11.02
2023-02-18T05:35:43.107Z,11.19
2023-02-18T05:38:09.940Z,11.33
2023-02-18T05:40:38.048Z,11.45
2023-02-18T05:43:04.745Z,11.98
2023-02-18T05:45:31.667Z,11.90
2023-02-18T05:47:58.465Z,11.75
2023-02-18T05:50:25.608Z,11.84
2023-02-18T05:52:52.461Z,12.09
2023-02-18T05:55:19.623Z,12.05
2023-02-18T05:57:46.774Z,12.03
2023-02-18T06:00:14.743Z,12.10
2023-02-18T06:02:41.838Z,12.15
2023-02-18T06:05:09.948Z,12.26
2023-02-18T06:07:37.564Z,12.35
2023-02-18T06:10:05.658Z,12.45
2023-02-18T06:12:32.378Z,12.33
2023-02-18T06:14:59.118Z,12.39
2023-02-18T06:17:25.861Z,12.20
2023-02-18T06:19:52.675Z,12.28
2023-02-18T06:22:20.093Z,12.20
2023-02-18T06:24:46.957Z,12.17
2023-02-18T06:27:13.837Z,12.17
2023-02-18T06:29:40.705Z,12.15
2023-02-18T06:32:07.969Z,12.18
2023-02-18T06:34:35.507Z,12.25
2023-02-18T06:37:02.499Z,12.41
2023-02-18T06:39:29.222Z,12.35
2023-02-18T06:41:55.984Z,12.44
2023-02-18T06:44:22.782Z,12.50
2023-02-18T06:46:49.680Z,12.62
2023-02-18T06:49:16.436Z,12.63
2023-02-18T06:51:43.252Z,12.59
2023-02-18T06:54:09.993Z,12.72
2023-02-18T06:56:37.087Z,12.72
2023-02-18T06:59:03.852Z,12.65
2023-02-18T07:01:31.361Z,12.69
2023-02-18T07:03:58.276Z,12.68
2023-02-18T07:06:25.693Z,12.84
2023-02-18T07:08:53.181Z,12.80
2023-02-18T07:11:20.445Z,12.94
2023-02-18T07:13:47.336Z,13.00
2023-02-18T07:16:14.167Z,13.16
2023-02-18T07:18:41.143Z,13.40
2023-02-18T07:21:08.272Z,13.50
2023-02-18T07:23:35.127Z,13.55
2023-02-18T07:26:07.137Z,13.40
2023-02-18T07:28:34.597Z,13.53
2023-02-18T07:31:02.293Z,13.60
2023-02-18T07:33:31.507Z,13.50
2023-02-18T07:36:00.784Z,13.47
2023-02-18T07:38:38.163Z,13.23
2023-02-18T07:41:05.028Z,13.29
2023-02-18T07:43:31.818Z,13.17
2023-02-18T07:45:58.628Z,13.15
2023-02-18T07:48:25.467Z,13.24
2023-02-18T07:50:52.363Z,13.40
2023-02-18T07:53:19.110Z,13.58
2023-02-18T07:55:48.759Z,13.76
2023-02-18T07:58:27.532Z,13.72
2023-02-18T08:00:55.239Z,13.88
2023-02-18T08:03:25.308Z,13.89
2023-02-18T08:05:52.930Z,13.96
2023-02-18T08:08:22.716Z,13.96
2023-02-18T08:10:50.761Z,14.14
2023-02-18T08:13:17.549Z,14.49
2023-02-18T08:15:44.818Z,14.70
2023-02-18T08:18:19.932Z,14.56
2023-02-18T08:20:51.244Z,14.53
2023-02-18T08:23:21.238Z,14.47
2023-02-18T08:25:51.414Z,14.68
2023-02-18T08:28:22.931Z,14.66
2023-02-18T08:30:52.646Z,14.57
2023-02-18T08:33:22.674Z,14.65
2023-02-18T08:35:53.495Z,14.88
2023-02-18T08:38:23.261Z,14.79
2023-02-18T08:41:13.053Z,14.83
2023-02-18T08:43:40.278Z,15.12
2023-02-18T08:46:09.114Z,15.06
2023-02-18T08:48:45.312Z,15.36
2023-02-18T08:51:19.017Z,15.27
2023-02-18T08:53:46.797Z,15.56
2023-02-18T08:56:15.000Z,15.29
2023-02-18T08:58:42.169Z,15.16
2023-02-18T09:01:12.065Z,15.38
2023-02-18T09:03:41.846Z,15.23
2023-02-18T09:06:10.896Z,15.31
2023-02-18T09:08:37.772Z,15.23
2023-02-18T09:11:04.844Z,15.23
2023-02-18T09:13:33.328Z,15.39
2023-02-18T09:16:10.406Z,15.52
2023-02-18T09:18:37.227Z,15.52
2023-02-18T09:21:06.184Z,15.59
2023-02-18T09:23:33.715Z,15.45
2023-02-18T09:26:04.755Z,15.43
2023-02-18T09:28:32.079Z,15.35
2023-02-18T09:31:08.187Z,15.16
2023-02-18T09:33:40.248Z,15.12
2023-02-18T09:36:07.813Z,14.83
2023-02-18T09:38:34.672Z,14.81
2023-02-18T09:41:05.071Z,14.70
2023-02-18T09:43:34.552Z,14.88
2023-02-18T09:46:04.106Z,14.80
2023-02-18T09:48:36.850Z,15.00
2023-02-18T09:51:03.860Z,15.16
2023-02-18T09:53:30.736Z,15.08
2023-02-18T09:56:00.039Z,15.15
2023-02-18T09:58:32.570Z,15.24
2023-02-18T10:01:19.520Z,15.46
2023-02-18T10:03:46.723Z,15.69
2023-02-18T10:06:25.468Z,15.51
2023-02-18T10:08:54.483Z,15.41
2023-02-18T10:11:23.062Z,15.42
2023-02-18T10:13:52.115Z,15.48
2023-02-18T10:16:22.124Z,15.74
2023-02-18T10:18:53.937Z,15.69
2023-02-18T10:21:25.597Z,15.34
2023-02-18T10:24:00.111Z,15.39
2023-02-18T10:26:30.729Z,15.68
2023-02-18T10:28:58.695Z,15.63
2023-02-18T10:31:33.053Z,15.60
2023-02-18T10:34:12.691Z,15.45
2023-02-18T10:36:45.799Z,15.54
2023-02-18T10:39:42.869Z,15.34
2023-02-18T10:42:34.069Z,15.41
2023-02-18T10:45:20.541Z,15.43
2023-02-18T10:48:02.759Z,15.56
2023-02-18T10:50:41.324Z,15.84
2023-02-18T10:53:13.774Z,15.95
2023-02-18T10:55:43.570Z,16.08
2023-02-18T10:58:33.146Z,16.21
2023-02-18T11:01:04.513Z,16.06
2023-02-18T11:03:50.453Z,16.51
2023-02-18T11:06:20.497Z,16.57
2023-02-18T11:08:48.829Z,16.34
2023-02-18T11:11:37.748Z,16.30
2023-02-18T11:14:06.968Z,16.52
2023-02-18T11:16:40.240Z,16.36
2023-02-18T11:19:33.650Z,16.23
2023-02-18T11:22:32.548Z,16.07
2023-02-18T11:25:18.249Z,16.04
2023-02-18T11:27:51.750Z,15.83
2023-02-18T11:30:26.575Z,16.01
2023-02-18T11:32:59.466Z,16.06
2023-02-18T11:35:31.029Z,16.12
2023-02-18T11:38:00.192Z,16.15
2023-02-18T11:40:34.279Z,16.33
2023-02-18T11:43:13.979Z,16.53
2023-02-18T11:45:41.584Z,16.58
2023-02-18T11:48:15.644Z,16.44
2023-02-18T11:50:42.930Z,16.39
2023-02-18T11:53:33.359Z,16.72
2023-02-18T11:56:02.275Z,16.88
2023-02-18T11:58:40.724Z,16.78
2023-02-18T12:01:19.186Z,16.91
2023-02-18T12:03:58.135Z,16.92
2023-02-18T12:06:34.409Z,16.93
2023-02-18T12:09:28.256Z,17.03
2023-02-18T12:12:00.895Z,17.13
2023-02-18T12:14:27.620Z,17.35
2023-02-18T12:17:14.905Z,17.08
2023-02-18T12:20:11.479Z,17.17
2023-02-18T12:22:51.755Z,16.77
2023-02-18T12:25:40.104Z,16.95
2023-02-18T12:28:28.875Z,16.96
2023-02-18T12:31:15.471Z,16.81
2023-02-18T12:33:58.188Z,16.75
2023-02-18T12:36:28.013Z,16.61
2023-02-18T12:38:57.318Z,17.02
2023-02-18T12:42:01.044Z,17.10
2023-02-18T12:44:45.478Z,17.10
2023-02-18T12:47:31.160Z,17.10
2023-02-18T12:50:03.209Z,17.43
2023-02-18T12:52:52.213Z,17.46
2023-02-18T12:55:49.569Z,17.19
2023-02-18T12:58:28.340Z,17.14
2023-02-18T13:01:10.708Z,16.98
2023-02-18T13:04:05.383Z,17.07
2023-02-18T13:06:41.233Z,16.89
2023-02-18T13:09:23.321Z,16.95
2023-02-18T13:12:10.404Z,16.70
2023-02-18T13:14:56.700Z,16.90
2023-02-18T13:17:26.793Z,16.86
2023-02-18T13:20:02.440Z,16.83
2023-02-18T13:22:30.366Z,16.82
2023-02-18T13:24:59.360Z,16.63
2023-02-18T13:27:38.769Z,16.56
2023-02-18T13:30:32.425Z,16.39
2023-02-18T13:33:21.841Z,16.54
2023-02-18T13:35:56.651Z,16.41
2023-02-18T13:38:48.294Z,16.50
2023-02-18T13:41:16.067Z,16.26
2023-02-18T13:43:43.795Z,16.30
2023-02-18T13:46:22.413Z,16.29
2023-02-18T13:48:52.916Z,16.04
2023-02-18T13:51:48.190Z,16.10
2023-02-18T13:54:21.412Z,16.00
2023-02-18T13:57:22.596Z,16.08
2023-02-18T13:59:58.612Z,15.96
2023-02-18T14:02:25.948Z,15.74
2023-02-18T14:05:18.427Z,15.57
2023-02-18T14:08:06.082Z,15.85
2023-02-18T14:10:36.777Z,15.93
2023-02-18T14:13:15.554Z,15.82
2023-02-18T14:16:09.527Z,15.72
2023-02-18T14:18:39.312Z,15.90
2023-02-18T14:21:11.943Z,15.77
2023-02-18T14:23:54.876Z,16.06
2023-02-18T14:26:48.907Z,15.91
2023-02-18T14:29:30.699Z,15.74
2023-02-18T14:32:04.355Z,15.75
2023-02-18T14:34:49.548Z,15.79
2023-02-18T14:37:34.198Z,15.78
2023-02-18T14:40:33.050Z,15.74
2023-02-18T14:43:05.256Z,15.62
2023-02-18T14:45:33.040Z,15.69
2023-02-18T14:48:15.927Z,15.54
2023-02-18T14:51:07.683Z,15.44
2023-02-18T14:53:43.314Z,15.34
2023-02-18T14:56:15.585Z,15.27
2023-02-18T14:58:53.719Z,15.40
2023-02-18T15:01:36.407Z,15.33
2023-02-18T15:04:04.606Z,15.18
2023-02-18T15:06:35.565Z,15.08
2023-02-18T15:09:12.930Z,15.15
2023-02-18T15:11:45.100Z,15.20
2023-02-18T15:14:19.732Z,15.08
2023-02-18T15:16:48.053Z,15.16
2023-02-18T15:19:18.362Z,15.19
2023-02-18T15:21:50.491Z,15.34
2023-02-18T15:24:26.972Z,15.48
2023-02-18T15:26:57.088Z,15.54
2023-02-18T15:29:31.293Z,15.49
2023-02-18T15:32:00.400Z,15.40
2023-02-18T15:34:37.954Z,15.35
2023-02-18T15:37:10.969Z,15.33
2023-02-18T15:39:40.315Z,15.46
2023-02-18T15:42:26.133Z,15.41
2023-02-18T15:45:17.613Z,15.33
2023-02-18T15:47:51.296Z,15.39
2023-02-18T15:50:26.106Z,15.37
2023-02-18T15:52:56.593Z,15.40
2023-02-18T15:58:45.288Z,15.38
2023-02-18T16:01:29.638Z,15.43
2023-02-18T16:04:08.852Z,15.44
2023-02-18T16:06:44.932Z,15.65
2023-02-18T16:09:39.872Z,15.48
2023-02-18T16:12:30.730Z,15.38
2023-02-18T16:15:00.008Z,15.51
2023-02-18T16:17:29.263Z,15.41
2023-02-18T16:20:04.973Z,15.17
2023-02-18T16:22:36.165Z,15.21
2023-02-18T16:25:21.937Z,15.04
2023-02-18T16:27:58.797Z,15.12
2023-02-18T16:30:32.554Z,15.19
2023-02-18T16:33:00.194Z,15.18
2023-02-18T16:35:32.672Z,15.36
2023-02-18T16:38:05.118Z,15.24
2023-02-18T16:40:40.587Z,15.24
2023-02-18T16:43:17.452Z,15.41
2023-02-18T16:45:52.859Z,15.35
2023-02-18T16:48:25.735Z,15.29
2023-02-18T16:50:52.674Z,15.43
2023-02-18T16:53:19.943Z,15.43
2023-02-18T16:55:49.226Z,15.44
2023-02-18T16:58:16.308Z,15.44
2023-02-18T17:00:45.271Z,15.53
2023-02-18T17:03:16.211Z,14.89
2023-02-18T17:05:43.096Z,11.12
2023-02-18T17:08:25.518Z,10.74
2023-02-18T17:10:57.091Z,10.62
2023-02-18T17:13:28.717Z,10.57
2023-02-18T17:15:57.104Z,10.56
2023-02-18T17:18:25.827Z,10.55
2023-02-18T17:20:53.909Z,10.57
2023-02-18T17:23:22.419Z,10.53
2023-02-18T17:25:51.184Z,10.58
2023-02-18T17:28:19.819Z,10.66
2023-02-18T17:30:55.908Z,10.65
2023-02-18T17:33:27.597Z,10.71
2023-02-18T17:35:56.684Z,10.71
2023-02-18T17:38:26.413Z,10.76
2023-02-18T17:40:53.226Z,10.69
2023-02-18T17:43:23.242Z,10.64
2023-02-18T17:45:57.209Z,10.66
2023-02-18T17:48:30.489Z,10.66
2023-02-18T17:50:57.518Z,10.70
2023-02-18T17:53:25.525Z,10.67
2023-02-18T17:55:53.947Z,10.66
2023-02-18T17:58:20.759Z,10.63
2023-02-18T18:00:54.394Z,10.68
2023-02-18T18:06:20.311Z,10.72
2023-02-18T18:08:49.715Z,10.72
2023-02-18T18:11:24.643Z,10.69
2023-02-18T18:13:53.604Z,10.71
2023-02-18T18:16:22.101Z,10.75
2023-02-18T18:18:49.192Z,10.76
2023-02-18T18:21:23.430Z,10.74
2023-02-18T18:24:03.635Z,10.74
2023-02-18T18:26:39.897Z,10.82
2023-02-18T18:29:06.866Z,10.87
2023-02-18T18:31:49.959Z,10.90
2023-02-18T18:34:16.988Z,10.93
2023-02-18T18:36:45.423Z,10.94
2023-02-18T18:39:12.185Z,10.94
2023-02-18T18:41:39.861Z,10.98
2023-02-18T18:44:06.828Z,10.97
2023-02-18T18:46:33.710Z,10.95
2023-02-18T18:49:00.440Z,10.95
2023-02-18T18:51:39.695Z,10.92
2023-02-18T18:54:06.730Z,10.95
2023-02-18T18:56:34.246Z,10.95
2023-02-18T18:59:01.330Z,10.96
2023-02-18T19:01:29.320Z,11.01
2023-02-18T19:03:56.619Z,11.01
2023-02-18T19:06:23.549Z,11.04
2023-02-18T19:08:50.804Z,11.07
2023-02-18T19:11:17.562Z,11.09
2023-02-18T19:13:45.297Z,11.08
2023-02-18T19:16:34.616Z,11.07
2023-02-18T19:19:01.724Z,11.06
2023-02-18T19:21:31.145Z,11.08
2023-02-18T19:23:59.207Z,11.11
2023-02-18T19:26:26.150Z,11.10
2023-02-18T19:28:53.157Z,11.10
2023-02-18T19:31:23.763Z,11.08
2023-02-18T19:33:52.300Z,11.08
2023-02-18T19:36:19.282Z,11.05
2023-02-18T19:38:46.251Z,11.05
2023-02-18T19:41:16.304Z,11.08
2023-02-18T19:43:44.400Z,11.09
2023-02-18T19:46:15.640Z,11.13
2023-02-18T19:48:44.794Z,11.15
2023-02-18T19:51:14.166Z,11.17
2023-02-18T19:53:40.952Z,11.17
2023-02-18T19:56:08.079Z,11.19
2023-02-18T19:58:41.039Z,11.18
2023-02-18T20:01:13.581Z,11.19
2023-02-18T20:03:41.455Z,11.21
2023-02-18T20:06:16.259Z,11.11
2023-02-18T20:08:51.100Z,11.10
2023-02-18T20:11:22.260Z,11.10
2023-02-18T20:13:50.929Z,11.16
2023-02-18T20:16:21.884Z,11.15
2023-02-18T20:18:59.657Z,11.19
2023-02-18T20:21:28.077Z,11.16
2023-02-18T20:24:01.699Z,11.14
2023-02-18T20:26:32.241Z,11.21
2023-02-18T20:29:01.457Z,11.18
2023-02-18T20:31:29.749Z,11.11
2023-02-18T20:33:59.028Z,11.02
2023-02-18T20:36:28.658Z,10.96
2023-02-18T20:39:04.944Z,10.94
2023-02-18T20:41:42.257Z,10.95
2023-02-18T20:44:16.570Z,10.88
2023-02-18T20:46:55.192Z,10.86
2023-02-18T20:49:24.486Z,10.86
2023-02-18T20:51:54.269Z,10.88
2023-02-18T20:54:22.367Z,10.89
2023-02-18T20:56:53.077Z,10.85
2023-02-18T20:59:21.569Z,10.83
2023-02-18T21:01:53.282Z,10.77
2023-02-18T21:04:29.740Z,10.75
2023-02-18T21:06:58.400Z,10.74
2023-02-18T21:09:26.129Z,10.56
2023-02-18T21:11:55.220Z,10.55
2023-02-18T21:14:24.855Z,10.55
2023-02-18T21:17:00.180Z,10.59
2023-02-18T21:19:30.726Z,10.62
2023-02-18T21:22:01.185Z,10.63
2023-02-18T21:24:32.140Z,10.59
2023-02-18T21:27:15.876Z,10.56
2023-02-18T21:29:42.936Z,10.56
2023-02-18T21:32:10.903Z,10.53
2023-02-18T21:34:44.431Z,10.40
2023-02-18T21:37:14.155Z,10.31
2023-02-18T21:39:48.287Z,10.35
2023-02-18T21:42:15.076Z,10.18
2023-02-18T21:44:43.077Z,9.93
2023-02-18T21:47:15.465Z,9.75
2023-02-18T21:49:44.656Z,9.63
2023-02-18T21:52:19.580Z,9.58
2023-02-18T21:54:47.894Z,9.72
2023-02-18T21:57:23.164Z,9.86
2023-02-18T21:59:50.772Z,9.99
2023-02-18T22:02:23.847Z,10.06
2023-02-18T22:04:55.639Z,9.83
2023-02-18T22:07:26.100Z,9.57
2023-02-18T22:09:56.811Z,9.37
2023-02-18T22:12:33.945Z,9.14
2023-02-18T22:15:01.157Z,8.90
2023-02-18T22:17:29.393Z,8.71
2023-02-18T22:19:56.399Z,8.64
2023-02-18T22:22:24.962Z,8.63
2023-02-18T22:24:58.424Z,8.61
2023-02-18T22:27:34.090Z,8.78
2023-02-18T22:30:01.365Z,8.71
2023-02-18T22:32:52.953Z,8.87
2023-02-18T22:35:58.696Z,8.77
2023-02-18T22:39:17.980Z,8.57
2023-02-18T22:41:56.981Z,8.45
2023-02-18T22:44:39.323Z,8.35
2023-02-18T22:47:25.869Z,8.28
2023-02-18T22:49:54.007Z,8.36
2023-02-18T22:52:28.830Z,8.45
2023-02-18T22:57:41.724Z,8.39
2023-02-18T23:00:14.016Z,8.33
2023-02-18T23:02:46.407Z,8.46
2023-02-18T23:05:13.595Z,8.76
2023-02-18T23:07:40.599Z,8.47
2023-02-18T23:10:09.884Z,8.42
2023-02-18T23:12:43.782Z,8.49
2023-02-18T23:15:23.260Z,8.51
2023-02-18T23:17:50.611Z,8.75
2023-02-18T23:20:43.760Z,8.68
2023-02-18T23:23:14.316Z,8.47
2023-02-18T23:25:41.277Z,8.42
2023-02-18T23:28:10.449Z,8.48
2023-02-18T23:30:41.352Z,8.60
2023-02-18T23:33:10.333Z,8.93
2023-02-18T23:35:37.320Z,9.73
2023-02-18T23:38:05.096Z,9.68
2023-02-18T23:40:32.344Z,9.67
2023-02-18T23:43:03.115Z,9.87
2023-02-18T23:45:30.231Z,9.77
2023-02-18T23:47:57.072Z,9.80
2023-02-18T23:50:24.545Z,9.85
2023-02-18T23:52:52.876Z,9.73
2023-02-18T23:55:23.722Z,9.81
2023-02-18T23:57:50.923Z,9.88
